Time;durP1;ratioP1;P1;durP2;ratioP2;P2;SDS_P1;SDS_P2;PMS_P1;PMS_P2;Temp;Humidity;BMP_temperature;BMP_pressure;BME280_temperature;BME280_humidity;BME280_pressure;Samples;Min_cycle;Max_cycle;Signal;HPM_P1;HPM_P2
2023/12/09 05:47:10;;;;;;;29.45;12.88;;;;;;;2.37;69.91;99840.81;5318627;23;20055;-95
2023/12/09 05:49:38;;;;;;;32.10;13.52;;;;;;;2.27;69.55;99812.00;4944355;28;20038;-94
2023/12/09 05:52:06;;;;;;;30.58;13.98;;;;;;;2.48;69.74;99850.84;4961572;28;20062;-93
2023/12/09 05:54:32;;;;;;;25.63;12.70;;;;;;;2.40;69.61;99846.53;4959796;28;20457;-94
2023/12/09 05:57:01;;;;;;;26.67;12.88;;;;;;;2.37;69.50;99838.16;4944153;28;20031;-94
2023/12/09 05:59:26;;;;;;;22.30;11.75;;;;;;;2.45;69.05;99837.13;4944019;28;20026;-95
2023/12/09 06:01:52;;;;;;;24.92;12.52;;;;;;;2.49;69.01;99843.69;4926555;28;20182;-94
2023/12/09 06:04:18;;;;;;;26.15;13.18;;;;;;;2.50;69.35;99840.81;4943695;28;20058;-95
2023/12/09 06:06:46;;;;;;;27.92;13.80;;;;;;;2.48;68.82;99848.19;4959274;28;20027;-94
2023/12/09 06:09:15;;;;;;;27.38;14.10;;;;;;;2.54;69.15;99850.03;4943648;28;20030;-94
2023/12/09 06:11:41;;;;;;;30.52;13.57;;;;;;;2.56;68.85;99868.44;4927414;28;20125;-94
2023/12/09 06:14:08;;;;;;;29.23;14.57;;;;;;;2.46;69.39;99846.75;4959803;28;20414;-93
2023/12/09 06:16:34;;;;;;;24.10;13.13;;;;;;;2.55;68.61;99864.13;4961304;28;20138;-93
2023/12/09 06:19:00;;;;;;;31.60;15.38;;;;;;;2.44;68.53;99868.22;4964532;28;20082;-94
2023/12/09 06:21:26;;;;;;;27.30;13.63;;;;;;;2.70;68.59;99891.34;4946276;28;20022;-93
2023/12/09 06:23:52;;;;;;;28.67;14.45;;;;;;;2.57;68.66;99857.59;4930434;28;20066;-95
2023/12/09 06:26:18;;;;;;;21.13;12.13;;;;;;;2.59;68.02;99866.19;4946929;28;20048;-94
2023/12/09 06:28:45;;;;;;;26.05;13.18;;;;;;;2.57;67.95;99862.94;4931715;28;20495;-94
2023/12/09 06:31:11;;;;;;;23.90;14.02;;;;;;;2.60;68.48;99865.16;4948675;28;20073;-95
2023/12/09 06:33:37;;;;;;;29.65;13.43;;;;;;;2.49;69.13;99879.06;4946797;28;20047;-95
2023/12/09 06:36:07;;;;;;;26.65;12.93;;;;;;;2.31;69.23;99874.34;4930444;28;20417;-93
2023/12/09 06:38:37;;;;;;;28.95;13.77;;;;;;;2.49;68.79;99873.75;4979433;28;20027;-95
2023/12/09 06:41:08;;;;;;;24.80;12.43;;;;;;;2.33;69.28;99874.94;4933360;28;20034;-95
2023/12/09 06:43:34;;;;;;;33.00;14.00;;;;;;;2.40;69.26;99873.09;4949784;28;20116;-96
2023/12/09 06:46:01;;;;;;;28.30;13.35;;;;;;;2.47;68.93;99889.09;4948661;28;20059;-95
2023/12/09 06:48:38;;;;;;;27.08;13.90;;;;;;;2.36;69.39;99894.97;4967956;28;20079;-96
2023/12/09 06:51:11;;;;;;;24.27;13.13;;;;;;;2.25;69.17;99890.28;4966062;28;20492;-96
2023/12/09 06:53:40;;;;;;;26.83;14.02;;;;;;;2.45;69.34;99904.41;4951085;28;20026;-95
2023/12/09 06:56:10;;;;;;;33.10;14.45;;;;;;;2.39;69.54;99910.53;4948066;28;20468;-95
2023/12/09 06:58:37;;;;;;;25.70;12.80;;;;;;;2.28;69.69;99909.25;4947726;28;20104;-94
2023/12/09 07:01:05;;;;;;;25.02;13.48;;;;;;;2.04;70.63;99872.66;4948210;28;20026;-95
2023/12/09 07:03:39;;;;;;;26.98;14.75;;;;;;;2.33;69.86;99911.34;4948421;28;20121;-96
2023/12/09 07:06:05;;;;;;;31.25;15.98;;;;;;;2.20;70.58;99897.00;4933173;28;20041;-96
2023/12/09 07:08:31;;;;;;;24.20;13.02;;;;;;;2.33;70.36;99912.16;4931692;28;20094;-96
2023/12/09 07:10:59;;;;;;;24.63;13.23;;;;;;;2.22;70.19;99887.00;4962964;28;20026;-95
2023/12/09 07:13:25;;;;;;;25.90;13.70;;;;;;;2.15;69.83;99880.03;4964113;28;20027;-95
2023/12/09 07:15:52;;;;;;;27.38;14.35;;;;;;;2.44;70.50;99908.06;4947630;28;20049;-96
2023/12/09 07:18:23;;;;;;;26.02;13.27;;;;;;;2.28;69.85;99880.03;4947969;28;20034;-96
2023/12/09 07:20:49;;;;;;;24.25;13.27;;;;;;;2.54;69.97;99902.38;4949502;28;20037;-96
2023/12/09 07:23:18;;;;;;;24.27;12.70;;;;;;;2.62;69.12;99899.53;4948873;28;20095;-96
2023/12/09 07:25:44;;;;;;;27.42;12.95;;;;;;;2.57;69.64;99891.31;4948191;28;20117;-96
2023/12/09 07:28:13;;;;;;;24.48;13.75;;;;;;;2.80;69.27;99913.03;5106189;23;20059;-96
2023/12/09 07:30:40;;;;;;;27.10;12.30;;;;;;;2.85;68.30;99885.00;4944046;28;20019;-96
2023/12/09 07:33:11;;;;;;;21.65;11.60;;;;;;;3.04;67.50;99887.63;4951473;28;20158;-96
2023/12/09 07:36:24;;;;;;;23.02;11.80;;;;;;;3.42;67.16;99918.91;4887255;29;20051;-95
2023/12/09 07:39:06;;;;;;;26.73;12.57;;;;;;;3.26;66.60;99890.09;4947499;28;20045;-95
2023/12/09 07:42:03;;;;;;;24.30;11.23;;;;;;;3.32;66.46;99885.75;4968703;28;20027;-95
2023/12/09 07:53:20;;;;;;;23.35;11.13;;;;;;;3.26;66.22;99886.56;5079737;23;20170;-96
2023/12/09 07:55:53;;;;;;;;;;;;;;;3.35;67.87;99917.28;4988641;28;20050;-96
2023/12/09 07:58:19;;;;;;;23.38;11.38;;;;;;;3.40;66.47;99896.19;5004388;28;19914;-95
2023/12/09 08:00:45;;;;;;;25.90;12.68;;;;;;;3.36;67.16;99874.50;4951827;28;20109;-94
2023/12/09 08:03:13;;;;;;;23.02;11.40;;;;;;;3.60;66.06;99922.75;4968903;28;20539;-96
2023/12/09 08:05:40;;;;;;;21.83;11.90;;;;;;;3.34;66.11;99881.88;4966749;28;20121;-96
2023/12/09 08:08:05;;;;;;;23.98;12.18;;;;;;;3.38;66.56;99901.72;4951415;28;20030;-96
2023/12/09 08:13:15;;;;;;;21.48;11.82;;;;;;;3.28;66.49;99901.34;5241859;23;20074;-95
2023/12/09 08:15:45;;;;;;;22.02;11.60;;;;;;;3.19;66.78;99895.41;4955682;28;20034;-94
2023/12/09 08:18:11;;;;;;;23.17;12.25;;;;;;;3.21;67.51;99901.31;4987099;28;20038;-96
2023/12/09 08:20:37;;;;;;;25.60;11.93;;;;;;;3.21;66.70;99908.50;4970125;28;20034;-95
2023/12/09 08:23:13;;;;;;;24.17;11.60;;;;;;;3.10;67.30;99912.59;4950323;28;20448;-96
2023/12/09 08:25:39;;;;;;;22.10;11.90;;;;;;;3.07;68.06;99888.25;4956970;28;20022;-95
2023/12/09 08:28:05;;;;;;;20.33;11.25;;;;;;;3.22;66.88;99908.28;4958178;28;20034;-94
2023/12/09 08:30:39;;;;;;;25.38;12.00;;;;;;;3.28;67.22;99917.31;4959617;28;20131;-96
2023/12/09 08:33:18;;;;;;;23.65;11.45;;;;;;;3.15;68.14;99915.44;4992999;28;20061;-96
2023/12/09 08:35:44;;;;;;;24.05;11.80;;;;;;;3.04;67.77;99884.97;4974107;28;20092;-96
2023/12/09 08:38:30;;;;;;;24.52;11.23;;;;;;;2.91;68.37;99887.66;4973888;28;20030;-96
2023/12/09 08:41:05;;;;;;;20.55;10.68;;;;;;;3.08;67.49;99893.38;4913154;29;20035;-95
2023/12/09 08:44:05;;;;;;;;;;;;;;;;;;;;;
2023/12/09 09:33:06;;;;;;;19.95;9.57;;;;;;;3.18;67.06;99858.38;5269523;23;20477;-96
2023/12/09 09:38:20;;;;;;;22.67;10.55;;;;;;;3.18;67.22;99853.84;5558755;23;19933;-96
2023/12/09 09:41:20;;;;;;;23.55;10.48;;;;;;;3.28;67.70;99860.59;4974320;28;20508;-95
2023/12/09 09:44:14;;;;;;;22.52;10.43;;;;;;;3.22;66.67;99841.78;4957455;28;20101;-96
2023/12/09 09:46:55;;;;;;;16.85;9.15;;;;;;;3.48;66.26;99855.22;4976357;28;20065;-95
2023/12/09 09:49:23;;;;;;;22.02;11.80;;;;;;;3.36;66.47;99839.91;4960783;28;20026;-94
2023/12/09 09:55:41;;;;;;;;;;;;;;;;;;;;;
2023/12/09 09:58:40;;;;;;;19.17;9.50;;;;;;;3.29;65.98;99814.31;4938806;28;20050;-96
2023/12/09 10:08:11;;;;;;;23.75;11.18;;;;;;;3.30;66.55;99822.09;4891403;29;20076;-95
2023/12/09 10:10:55;;;;;;;21.02;10.50;;;;;;;3.42;66.09;99812.44;4919100;29;20019;-96
2023/12/09 10:13:46;;;;;;;26.83;11.65;;;;;;;3.36;66.75;99805.31;4949201;29;20039;-96
2023/12/09 10:16:42;;;;;;;23.05;10.77;;;;;;;3.32;66.35;99801.44;4961774;29;20085;-96
2023/12/09 10:19:22;;;;;;;24.90;10.73;;;;;;;3.30;65.87;99807.97;4975238;29;20189;-95
2023/12/09 10:22:26;;;;;;;22.55;10.68;;;;;;;3.21;66.59;99797.53;5304138;23;20547;-96
2023/12/09 10:25:27;;;;;;;20.92;10.48;;;;;;;3.19;66.93;99791.63;4993683;28;20050;-96
2023/12/09 10:28:49;;;;;;;21.55;10.30;;;;;;;3.62;64.45;99809.69;4996857;28;20105;-95
2023/12/09 10:31:15;;;;;;;24.33;12.00;;;;;;;3.73;66.20;99818.84;4931531;28;20069;-96
2023/12/09 10:34:02;;;;;;;19.00;10.35;;;;;;;3.84;65.47;99820.03;4965862;28;20054;-95
2023/12/09 10:36:40;;;;;;;18.48;10.30;;;;;;;3.78;63.83;99797.72;4983421;28;20117;-96
2023/12/09 10:39:08;;;;;;;17.95;9.73;;;;;;;3.80;62.90;99805.50;4975310;28;20034;-96
2023/12/09 10:41:49;;;;;;;;;;;;;;;;;;;;;
2023/12/09 10:44:43;;;;;;;;;;;;;;;4.22;63.21;99814.66;5420358;23;20130;-96
2023/12/09 10:53:28;;;;;;;22.52;12.02;;;;;;;3.89;64.83;99814.88;5012158;28;20114;-96
2023/12/09 10:56:45;;;;;;;25.23;12.32;;;;;;;3.92;64.75;99817.13;4943089;29;20073;-96
2023/12/09 11:08:05;;;;;;;25.38;12.93;;;;;;;3.84;64.93;99796.88;5924502;23;20061;-95
2023/12/09 11:40:08;;;;;;;15.82;9.13;;;;;;;4.09;61.87;99803.28;4999997;28;20085;-96
2023/12/09 11:48:16;;;;;;;16.92;9.02;;;;;;;3.88;61.55;99778.63;5004207;28;20038;-96
2023/12/09 11:51:20;;;;;;;;;;;;;;;;;;;;;
2023/12/09 11:53:57;;;;;;;15.02;8.32;;;;;;;3.80;61.20;99777.03;4998207;28;20054;-96
2023/12/09 11:56:23;;;;;;;17.40;8.85;;;;;;;3.83;62.21;99773.91;4967917;28;20036;-95
2023/12/09 11:59:12;;;;;;;17.60;8.90;;;;;;;3.92;61.82;99779.00;4955706;28;20034;-96
2023/12/09 12:01:48;;;;;;;20.75;10.48;;;;;;;3.81;62.28;99761.84;4939319;28;20149;-96
2023/12/09 12:04:35;;;;;;;;;;;;;;;;;;;;;
2023/12/09 12:07:15;;;;;;;18.20;9.50;;;;;;;3.64;62.52;99767.69;4937642;29;20036;-95
2023/12/09 12:10:15;;;;;;;18.70;10.25;;;;;;;3.63;62.80;99762.56;4936143;29;20159;-96
2023/12/09 12:12:47;;;;;;;19.88;10.32;;;;;;;3.72;61.82;99776.47;4895546;29;20107;-96
2023/12/09 12:15:24;;;;;;;;;;;;;;;3.93;62.16;99784.13;4901774;29;20115;-96
2023/12/09 12:18:14;;;;;;;16.70;8.63;;;;;;;3.77;61.01;99756.13;4893407;29;19982;-95
2023/12/09 12:20:42;;;;;;;20.85;9.07;;;;;;;3.77;62.18;99763.31;4919586;29;20044;-96
2023/12/09 12:23:11;;;;;;;20.25;10.07;;;;;;;3.90;62.31;99776.56;4900241;29;20039;-96
2023/12/09 12:25:38;;;;;;;20.55;9.48;;;;;;;3.91;61.72;99778.19;4883276;29;20063;-95
2023/12/09 12:28:08;;;;;;;16.33;9.40;;;;;;;3.85;61.66;99779.84;4883711;29;20036;-96
2023/12/09 12:30:34;;;;;;;19.63;11.18;;;;;;;3.54;62.88;99766.50;4930580;29;20122;-96
2023/12/09 12:33:09;;;;;;;16.35;9.38;;;;;;;3.60;62.87;99771.00;4899393;29;20084;-96
2023/12/09 12:36:23;;;;;;;18.45;9.75;;;;;;;3.36;62.63;99735.25;4906586;29;20017;-96
2023/12/09 12:39:42;;;;;;;22.15;14.05;;;;;;;3.51;62.50;99737.63;4938789;29;20040;-96
2023/12/09 12:42:34;;;;;;;15.52;8.02;;;;;;;3.44;62.30;99761.63;4924966;29;20047;-95
2023/12/09 12:45:22;;;;;;;17.00;9.05;;;;;;;3.58;62.67;99759.72;4886186;29;20035;-95
2023/12/09 12:47:50;;;;;;;19.52;10.13;;;;;;;3.43;63.20;99755.50;4855167;29;20128;-96
2023/12/09 12:50:27;;;;;;;18.25;9.00;;;;;;;3.22;64.20;99750.50;4878878;29;20051;-96
2023/12/09 12:52:56;;;;;;;16.77;9.15;;;;;;;3.26;64.56;99749.03;4892375;29;20040;-96
2023/12/09 12:55:22;;;;;;;18.33;9.20;;;;;;;3.47;64.14;99755.91;4877096;29;20145;-94
2023/12/09 12:57:48;;;;;;;21.30;10.30;;;;;;;3.41;63.77;99746.91;4876453;29;20194;-96
2023/12/09 13:00:16;;;;;;;22.42;9.98;;;;;;;3.37;64.05;99745.69;4893445;29;20039;-95
2023/12/09 13:02:42;;;;;;;20.85;11.13;;;;;;;3.42;64.40;99745.91;4878969;29;20028;-95
2023/12/09 13:05:08;;;;;;;21.95;11.25;;;;;;;3.53;64.00;99767.53;4892335;29;20107;-94
2023/12/09 13:07:35;;;;;;;20.13;11.10;;;;;;;3.53;63.03;99775.50;4893229;29;20040;-96
2023/12/09 13:10:06;;;;;;;19.52;9.93;;;;;;;3.47;62.97;99774.53;4885640;29;20047;-95
2023/12/09 13:12:32;;;;;;;17.63;9.02;;;;;;;3.18;61.60;99742.09;4909534;29;20425;-95
2023/12/09 13:14:59;;;;;;;17.33;9.25;;;;;;;3.25;60.92;99744.72;4910177;29;20028;-95
2023/12/09 13:17:26;;;;;;;13.95;7.68;;;;;;;3.28;60.50;99746.16;4967389;28;20039;-96
2023/12/09 13:19:59;;;;;;;12.77;7.20;;;;;;;3.28;59.72;99741.66;4976519;28;20042;-95
2023/12/09 13:22:32;;;;;;;14.23;7.18;;;;;;;3.12;61.06;99737.63;4996040;28;20116;-96
2023/12/09 13:27:53;;;;;;;16.85;8.27;;;;;;;3.35;60.90;99769.06;5105870;23;20065;-96
2023/12/09 13:44:03;;;;;;;;;;;;;;;;;;;;;
2023/12/09 14:17:54;;;;;;;13.77;7.70;;;;;;;2.93;64.18;99763.28;5992264;23;20029;-94
2023/12/09 14:20:37;;;;;;;12.85;7.07;;;;;;;2.79;64.25;99756.34;4934881;29;20035;-95
2023/12/09 14:25:42;;;;;;;13.80;6.88;;;;;;;2.94;63.66;99775.53;5396448;23;19929;-95
2023/12/09 14:28:14;;;;;;;24.23;9.43;;;;;;;3.14;63.59;99783.47;4985696;28;20054;-95
2023/12/09 14:30:40;;;;;;;15.93;8.45;;;;;;;2.94;65.31;99777.38;4969151;28;20031;-95
2023/12/09 14:33:12;;;;;;;14.30;7.63;;;;;;;2.82;65.45;99755.91;4970055;28;20030;-95
2023/12/09 14:35:37;;;;;;;17.17;8.50;;;;;;;2.76;65.76;99759.41;4989052;28;20038;-96
2023/12/09 14:38:11;;;;;;;15.15;8.27;;;;;;;2.78;66.00;99782.13;4973551;28;20035;-95
2023/12/09 14:41:01;;;;;;;15.73;8.90;;;;;;;2.67;65.80;99755.34;4974484;28;20038;-96
2023/12/09 14:43:27;;;;;;;17.85;8.15;;;;;;;2.76;65.04;99770.03;4974286;28;20134;-96
2023/12/09 14:45:54;;;;;;;15.15;8.55;;;;;;;2.52;65.58;99760.88;4951778;28;20026;-94
2023/12/09 14:48:21;;;;;;;13.57;8.55;;;;;;;2.52;65.73;99761.69;4985040;28;20026;-96
2023/12/09 14:50:49;;;;;;;16.38;8.68;;;;;;;2.57;66.63;99779.69;4983446;28;20069;-95
2023/12/09 14:53:17;;;;;;;14.45;8.52;;;;;;;2.66;65.77;99781.13;4946351;28;20026;-95
2023/12/09 14:55:44;;;;;;;16.60;9.30;;;;;;;2.75;65.75;99787.03;4963042;28;20408;-96
2023/12/09 14:58:12;;;;;;;14.18;7.90;;;;;;;2.70;65.33;99768.22;4962575;28;20030;-94
2023/12/09 15:00:38;;;;;;;17.55;10.05;;;;;;;2.73;65.51;99781.91;4963598;28;20503;-95
2023/12/09 15:03:08;;;;;;;30.90;17.00;;;;;;;2.74;65.56;99780.91;4950529;28;20072;-95
2023/12/09 15:05:36;;;;;;;17.92;9.73;;;;;;;2.56;65.17;99778.06;4983931;28;20019;-95
2023/12/09 15:08:03;;;;;;;16.27;9.88;;;;;;;2.57;65.12;99785.84;4953958;28;20041;-96
2023/12/09 15:10:47;;;;;;;18.52;9.95;;;;;;;2.69;65.62;99791.31;4983409;28;20034;-96
2023/12/09 15:13:16;;;;;;;20.63;9.52;;;;;;;2.57;65.19;99788.50;4985526;28;20046;-96
2023/12/09 15:15:46;;;;;;;17.92;9.63;;;;;;;2.62;65.18;99807.28;4952959;28;20038;-96
2023/12/09 15:18:12;;;;;;;18.63;10.30;;;;;;;2.50;66.17;99779.69;4969618;28;20055;-95
2023/12/09 15:20:37;;;;;;;19.55;9.57;;;;;;;2.71;65.07;99785.81;4954008;28;20042;-96
2023/12/09 15:23:05;;;;;;;23.80;9.85;;;;;;;2.72;64.50;99801.56;4967608;28;20023;-95
2023/12/09 15:25:38;;;;;;;18.45;9.50;;;;;;;2.39;65.19;99773.16;4967182;28;20057;-95
2023/12/09 15:28:08;;;;;;;17.95;9.35;;;;;;;2.56;65.10;99786.84;4984684;28;20058;-96
2023/12/09 15:30:46;;;;;;;;;;;;;;;;;;;;;
2023/12/09 15:33:16;;;;;;;24.10;10.55;;;;;;;2.37;65.98;99779.72;4970196;28;20090;-96
2023/12/09 15:35:42;;;;;;;22.70;9.43;;;;;;;2.20;66.36;99781.94;4984135;28;20165;-96
2023/12/09 15:38:16;;;;;;;18.25;10.23;;;;;;;2.28;66.61;99788.88;4983947;28;20062;-95
2023/12/09 15:40:43;;;;;;;16.83;9.20;;;;;;;2.32;66.51;99785.63;4970189;28;20030;-96
2023/12/09 15:43:09;;;;;;;16.85;9.07;;;;;;;2.20;66.84;99795.22;4967226;28;20037;-96
2023/12/09 15:45:40;;;;;;;19.67;9.95;;;;;;;2.45;65.94;99792.78;4968304;28;20035;-95
2023/12/09 15:48:11;;;;;;;23.60;11.18;;;;;;;2.39;66.48;99791.75;4983696;28;20416;-95
2023/12/09 15:50:37;;;;;;;20.90;10.50;;;;;;;2.37;66.45;99788.50;4969068;28;20034;-96
2023/12/09 15:53:04;;;;;;;18.90;9.80;;;;;;;2.28;65.99;99796.88;4952079;28;20034;-96
2023/12/09 15:55:32;;;;;;;17.48;9.57;;;;;;;2.22;66.65;99788.69;4966040;28;20022;-96
2023/12/09 15:58:00;;;;;;;17.15;9.75;;;;;;;2.31;66.92;99788.50;4966524;28;20031;-95
2023/12/09 16:00:25;;;;;;;17.25;9.27;;;;;;;2.33;67.20;99797.91;4998375;28;20035;-95
2023/12/09 16:02:55;;;;;;;18.55;9.38;;;;;;;2.18;66.88;99790.13;4967954;28;20109;-96
2023/12/09 16:05:25;;;;;;;16.55;9.63;;;;;;;2.30;66.11;99792.97;4966266;28;20112;-95
2023/12/09 16:07:51;;;;;;;17.80;9.50;;;;;;;2.22;67.12;99793.16;4967915;28;20030;-94
2023/12/09 16:10:48;;;;;;;;;;;;;;;;;;;;;
2023/12/09 16:13:57;;;;;;;17.85;9.30;;;;;;;2.06;66.83;99775.81;4988879;28;20054;-95
2023/12/09 16:16:49;;;;;;;19.27;9.70;;;;;;;2.02;66.62;99770.06;4946976;28;20075;-96
2023/12/09 16:20:07;;;;;;;;;;;;;;;;;;;;;
2023/12/09 16:23:00;;;;;;;22.02;9.63;;;;;;;2.20;66.64;99800.53;4898317;29;20037;-96
2023/12/09 16:25:28;;;;;;;16.63;9.23;;;;;;;2.03;66.25;99778.84;4894454;29;20517;-96
2023/12/09 16:27:59;;;;;;;15.20;8.90;;;;;;;1.99;66.36;99764.34;4930730;29;20299;-94
2023/12/09 16:30:30;;;;;;;11.68;8.00;;;;;;;2.07;65.97;99779.28;4945705;29;20102;-95
2023/12/09 16:32:56;;;;;;;15.77;7.93;;;;;;;2.11;65.87;99780.50;4912673;29;20028;-95
2023/12/09 16:35:22;;;;;;;14.27;8.20;;;;;;;1.99;66.45;99762.53;4928962;29;20047;-96
2023/12/09 16:37:48;;;;;;;17.92;8.05;;;;;;;1.96;66.50;99765.56;4928657;29;20075;-95
2023/12/09 16:40:27;;;;;;;;;;;;;;;;;;;;;
2023/12/09 16:42:53;;;;;;;22.33;9.57;;;;;;;1.97;65.34;99774.34;4931700;29;20091;-95
2023/12/09 16:45:19;;;;;;;26.13;11.40;;;;;;;2.12;65.61;99790.13;4928144;29;20466;-96
2023/12/09 16:47:48;;;;;;;15.57;8.68;;;;;;;2.10;66.35;99777.03;4928305;29;20038;-95
2023/12/09 16:50:19;;;;;;;21.00;10.82;;;;;;;2.08;66.44;99787.03;4949642;28;20034;-95
2023/12/09 16:52:45;;;;;;;18.13;10.98;;;;;;;2.21;65.78;99805.63;4966024;28;20031;-96
2023/12/09 16:55:10;;;;;;;23.63;13.10;;;;;;;2.06;65.98;99782.97;4965365;28;20041;-96
2023/12/09 16:57:40;;;;;;;25.50;13.48;;;;;;;1.96;66.62;99783.34;4965696;28;20093;-95
2023/12/09 17:00:10;;;;;;;25.90;13.43;;;;;;;2.01;66.66;99775.59;4967052;28;20039;-96
2023/12/09 17:02:40;;;;;;;21.67;12.50;;;;;;;2.10;66.56;99787.66;4984771;28;20030;-96
2023/12/09 17:05:08;;;;;;;23.38;10.82;;;;;;;2.22;65.93;99790.50;4968871;28;20405;-95
2023/12/09 17:07:38;;;;;;;17.05;9.63;;;;;;;2.42;64.65;99806.47;4982074;28;20070;-96
2023/12/09 17:10:04;;;;;;;18.58;9.23;;;;;;;2.32;65.11;99776.84;4968740;28;20027;-96
2023/12/09 17:12:33;;;;;;;17.85;9.80;;;;;;;2.37;65.02;99785.03;4968797;28;20027;-95
2023/12/09 17:15:02;;;;;;;23.85;9.75;;;;;;;2.40;65.18;99790.72;4952725;28;20046;-95
2023/12/09 17:17:39;;;;;;;20.55;10.90;;;;;;;2.18;66.22;99774.19;4983477;28;20101;-96
2023/12/09 17:20:27;;;;;;;24.17;12.40;;;;;;;2.17;66.79;99769.06;4954686;28;20511;-95
2023/12/09 17:23:00;;;;;;;28.45;13.02;;;;;;;2.34;67.09;99786.22;4944344;29;20106;-96
2023/12/09 17:25:30;;;;;;;23.85;12.60;;;;;;;2.31;66.09;99773.38;4926462;29;20052;-95
2023/12/09 17:27:59;;;;;;;23.65;12.88;;;;;;;2.23;67.04;99777.03;4941913;29;20051;-96
2023/12/09 17:30:25;;;;;;;23.42;13.75;;;;;;;2.10;67.42;99774.38;4925709;29;20095;-96
2023/12/09 17:32:52;;;;;;;23.88;14.02;;;;;;;1.99;68.18;99764.34;4924465;29;20126;-96
2023/12/09 17:35:22;;;;;;;25.88;13.20;;;;;;;1.86;68.47;99762.50;4928054;29;20156;-96
2023/12/09 17:37:48;;;;;;;26.17;14.48;;;;;;;1.91;69.05;99778.66;4925502;29;20114;-95
2023/12/09 17:40:14;;;;;;;29.20;14.55;;;;;;;1.87;69.13;99777.41;4926132;29;20150;-96
2023/12/09 17:42:40;;;;;;;25.90;13.02;;;;;;;1.89;69.65;99793.97;4927617;29;20122;-96
2023/12/09 17:45:09;;;;;;;27.52;13.40;;;;;;;1.66;70.29;99786.34;4928136;29;20027;-95
2023/12/09 17:47:36;;;;;;;33.03;15.15;;;;;;;1.67;69.86;99774.72;4931230;29;20055;-95
2023/12/09 17:50:02;;;;;;;28.02;15.20;;;;;;;1.49;70.27;99762.00;4942395;29;20035;-95
2023/12/09 17:52:29;;;;;;;33.10;17.60;;;;;;;1.67;70.05;99795.94;4927326;29;20067;-96
2023/12/09 17:54:58;;;;;;;37.13;19.83;;;;;;;1.47;69.96;99785.25;4963971;28;20070;-96
2023/12/09 17:57:26;;;;;;;42.33;19.98;;;;;;;1.39;70.59;99767.69;4985350;28;20031;-95
2023/12/09 17:59:54;;;;;;;49.35;23.10;;;;;;;1.53;70.88;99808.34;4951518;28;20049;-95
2023/12/09 18:02:20;;;;;;;37.00;20.67;;;;;;;1.39;71.37;99786.25;4982225;28;20030;-96
2023/12/09 18:04:46;;;;;;;37.50;21.27;;;;;;;1.50;71.24;99805.28;4965779;28;20066;-96
2023/12/09 18:07:14;;;;;;;42.20;18.80;;;;;;;1.35;72.19;99784.19;4966545;28;20035;-95
2023/12/09 18:09:40;;;;;;;35.20;18.23;;;;;;;1.18;71.80;99763.34;4976398;28;20015;-96
2023/12/09 18:12:13;;;;;;;34.08;18.17;;;;;;;1.24;71.79;99782.09;4981160;28;20038;-95
2023/12/09 18:14:42;;;;;;;30.40;16.58;;;;;;;1.14;71.47;99764.75;4957809;29;20051;-96
2023/12/09 18:17:18;;;;;;;31.33;14.90;;;;;;;1.41;70.79;99800.16;4926906;29;20080;-96
2023/12/09 18:19:48;;;;;;;31.02;14.93;;;;;;;1.16;71.23;99760.06;4927939;29;20043;-96
2023/12/09 18:22:22;;;;;;;28.30;14.18;;;;;;;1.32;71.06;99787.25;4926973;29;20031;-96
2023/12/09 18:24:48;;;;;;;27.02;15.07;;;;;;;1.14;71.25;99755.94;4927170;29;20051;-96
2023/12/09 18:27:24;;;;;;;28.10;15.18;;;;;;;1.17;71.55;99766.16;4927477;29;20032;-96
2023/12/09 18:29:55;;;;;;;29.75;15.10;;;;;;;1.18;71.41;99775.75;4928536;29;20039;-96
2023/12/09 18:32:20;;;;;;;29.73;13.73;;;;;;;1.03;71.37;99753.88;4943044;29;20055;-96
2023/12/09 18:35:20;;;;;;;29.85;14.02;;;;;;;0.96;71.11;99752.00;4926931;29;20099;-96
2023/12/09 18:37:56;;;;;;;30.38;13.57;;;;;;;0.97;71.25;99745.66;4958794;28;20046;-96
2023/12/09 18:40:50;;;;;;;27.23;13.60;;;;;;;0.95;71.12;99744.22;4943426;28;20044;-96
2023/12/09 18:43:35;;;;;;;24.40;13.35;;;;;;;0.96;70.83;99746.69;4919503;29;20040;-96
2023/12/09 18:46:04;;;;;;;22.40;13.25;;;;;;;1.03;70.20;99773.22;4939847;28;20039;-96
2023/12/09 18:48:31;;;;;;;27.48;13.48;;;;;;;0.97;70.84;99763.41;4913821;29;20034;-96
2023/12/09 18:50:59;;;;;;;26.90;13.65;;;;;;;1.10;70.64;99786.53;4914849;29;20036;-96
2023/12/09 18:53:25;;;;;;;28.33;14.07;;;;;;;0.96;71.11;99761.78;4913921;29;20601;-96
2023/12/09 18:55:51;;;;;;;25.23;14.65;;;;;;;1.01;70.98;99764.66;4911646;29;20043;-96
2023/12/09 18:58:17;;;;;;;28.67;14.38;;;;;;;0.93;70.53;99748.91;4913433;29;20051;-96
2023/12/09 19:00:43;;;;;;;35.38;17.02;;;;;;;0.89;71.01;99739.72;4928675;29;20030;-95
2023/12/09 19:03:18;;;;;;;34.72;18.30;;;;;;;0.93;71.68;99756.88;4913361;29;20125;-96
2023/12/09 19:05:44;;;;;;;29.52;14.95;;;;;;;0.95;71.02;99752.19;4915394;29;20047;-96
2023/12/09 19:08:10;;;;;;;26.00;15.02;;;;;;;0.91;71.19;99725.25;4931946;29;20490;-96
2023/12/09 19:10:40;;;;;;;25.58;14.43;;;;;;;1.03;70.98;99740.59;4916549;29;20063;-96
2023/12/09 19:13:08;;;;;;;27.52;15.43;;;;;;;1.06;70.68;99729.59;4934896;28;20067;-96
2023/12/09 19:15:35;;;;;;;23.40;14.20;;;;;;;1.03;70.76;99727.34;4986077;28;20042;-96
2023/12/09 19:18:06;;;;;;;25.13;13.63;;;;;;;1.10;70.02;99744.09;4986690;28;20065;-96
2023/12/09 19:20:33;;;;;;;24.08;12.73;;;;;;;1.08;69.65;99735.50;4987546;28;20030;-96
2023/12/09 19:23:01;;;;;;;27.13;12.25;;;;;;;0.88;69.81;99715.03;4971941;28;20035;-96
2023/12/09 19:25:27;;;;;;;28.67;13.60;;;;;;;0.92;69.74;99728.72;4987977;28;20082;-94
2023/12/09 19:27:58;;;;;;;19.13;11.85;;;;;;;1.00;70.00;99755.91;4969764;28;20056;-96
2023/12/09 19:30:26;;;;;;;26.97;13.50;;;;;;;0.86;70.21;99732.16;4984991;28;20100;-96
2023/12/09 19:32:52;;;;;;;30.90;14.25;;;;;;;0.72;71.42;99726.78;4983440;28;20062;-96
2023/12/09 19:35:18;;;;;;;23.52;13.50;;;;;;;0.67;72.63;99737.16;4967445;28;20030;-96
2023/12/09 19:37:47;;;;;;;23.17;13.90;;;;;;;0.65;71.81;99731.22;4984089;28;20074;-96
2023/12/09 19:40:14;;;;;;;21.77;12.40;;;;;;;0.60;72.52;99737.13;4984330;28;20496;-96
2023/12/09 19:42:41;;;;;;;32.30;17.77;;;;;;;0.73;72.89;99765.53;4951698;28;20098;-95
2023/12/09 19:45:11;;;;;;;26.17;14.65;;;;;;;0.56;73.26;99732.38;4985477;28;20099;-96
2023/12/09 19:47:42;;;;;;;29.55;15.30;;;;;;;0.57;73.00;99732.19;4984689;28;20067;-96
2023/12/09 19:50:10;;;;;;;31.83;15.27;;;;;;;0.68;73.57;99753.88;4984752;28;20038;-96
2023/12/09 19:52:36;;;;;;;25.17;14.50;;;;;;;0.60;72.89;99738.94;4984581;28;20091;-96
2023/12/09 19:55:03;;;;;;;34.50;16.10;;;;;;;0.66;73.17;99745.28;4951775;28;20104;-96
2023/12/09 19:57:29;;;;;;;28.52;14.75;;;;;;;0.63;72.83;99738.56;4953040;28;20125;-96
2023/12/09 19:59:56;;;;;;;26.38;13.30;;;;;;;0.76;72.77;99761.66;4971847;28;20041;-96
2023/12/09 20:02:30;;;;;;;32.70;15.38;;;;;;;0.54;73.54;99722.00;4974581;28;20022;-96
2023/12/09 20:04:57;;;;;;;24.90;13.88;;;;;;;0.67;73.42;99761.00;4959909;28;20441;-96
2023/12/09 20:07:30;;;;;;;28.88;14.98;;;;;;;0.63;74.02;99757.09;4973393;28;20102;-96
2023/12/09 20:10:03;;;;;;;29.40;13.93;;;;;;;0.66;73.55;99754.06;4990867;28;20058;-96
2023/12/09 20:12:41;;;;;;;30.52;17.48;;;;;;;0.43;74.35;99733.13;4950283;29;20043;-96
2023/12/09 20:15:12;;;;;;;31.58;14.23;;;;;;;0.49;74.29;99739.47;4951703;29;20072;-96
2023/12/09 20:17:38;;;;;;;29.92;15.63;;;;;;;0.31;74.65;99710.81;4933850;29;20043;-96
2023/12/09 20:20:10;;;;;;;33.38;16.67;;;;;;;0.27;74.87;99713.06;4917658;29;20039;-96
2023/12/09 20:22:39;;;;;;;32.03;17.25;;;;;;;0.26;75.18;99715.91;4935548;29;20099;-96
2023/12/09 20:25:06;;;;;;;34.53;17.90;;;;;;;0.20;75.03;99714.81;4918880;29;20142;-96
2023/12/09 20:27:31;;;;;;;36.60;17.73;;;;;;;0.15;74.88;99706.66;4926982;28;20027;-96
2023/12/09 20:29:57;;;;;;;32.80;17.02;;;;;;;0.18;74.92;99714.19;4926373;29;20129;-96
2023/12/09 20:32:42;;;;;;;37.55;19.45;;;;;;;0.23;74.94;99721.56;4943625;28;20036;-96
2023/12/09 20:35:09;;;;;;;33.97;18.45;;;;;;;0.31;75.09;99730.22;4921564;29;20059;-96
2023/12/09 20:37:44;;;;;;;32.85;19.02;;;;;;;0.08;75.22;99711.88;4953045;29;20066;-96
2023/12/09 20:40:10;;;;;;;33.95;16.45;;;;;;;0.07;75.68;99709.44;4949855;29;20115;-96
2023/12/09 20:42:38;;;;;;;24.15;12.43;;;;;;;-0.07;76.33;99706.66;4942142;28;20047;-96
2023/12/09 20:45:09;;;;;;;22.15;12.00;;;;;;;-0.12;76.11;99698.50;4974305;28;20045;-96